Time;durP1;ratioP1;P1;durP2;ratioP2;P2;SDS_P1;SDS_P2;PMS_P1;PMS_P2;Temp;Humidity;BMP_temperature;BMP_pressure;BME280_temperature;BME280_humidity;BME280_pressure;Samples;Min_cycle;Max_cycle;Signal;HPM_P1;HPM_P2
2021/07/20 00:02:40;;;;;;;8.70;5.67;;;;;;;19.55;100.00;99508.16;6246234;28;20041;-79
2021/07/20 00:05:44;;;;;;;10.02;5.85;;;;;;;19.57;100.00;99507.00;6246294;28;20127;-79
2021/07/20 00:08:45;;;;;;;11.10;5.60;;;;;;;19.59;100.00;99517.44;6246045;28;20041;-79
2021/07/20 00:11:45;;;;;;;11.27;6.10;;;;;;;19.64;100.00;99523.03;6246264;28;20260;-79
2021/07/20 00:14:46;;;;;;;9.53;5.90;;;;;;;19.63;100.00;99522.22;6245043;28;20045;-79
2021/07/20 00:17:50;;;;;;;10.43;5.47;;;;;;;19.69;100.00;99526.84;6246134;28;20065;-79
2021/07/20 00:20:51;;;;;;;11.35;5.25;;;;;;;19.67;100.00;99523.53;6246084;28;20381;-79
2021/07/20 00:23:52;;;;;;;11.40;6.00;;;;;;;19.69;100.00;99540.09;6244724;28;20038;-79
2021/07/20 00:26:53;;;;;;;10.17;5.90;;;;;;;19.71;100.00;99543.44;6245927;28;20052;-79
2021/07/20 00:29:53;;;;;;;11.93;5.10;;;;;;;19.61;100.00;99542.72;6228340;28;20052;-79
2021/07/20 00:32:54;;;;;;;8.00;5.43;;;;;;;19.70;100.00;99530.31;6212114;28;20096;-79
2021/07/20 00:35:55;;;;;;;12.57;6.03;;;;;;;19.67;100.00;99528.84;6244795;28;20095;-79
2021/07/20 00:38:56;;;;;;;8.97;5.67;;;;;;;19.71;100.00;99526.72;6244675;28;20057;-79
2021/07/20 00:41:57;;;;;;;11.93;6.07;;;;;;;19.71;100.00;99524.09;6244655;28;20473;-79
2021/07/20 00:44:58;;;;;;;11.83;5.80;;;;;;;19.69;100.00;99515.44;6244527;28;20077;-79
2021/07/20 00:47:58;;;;;;;10.57;5.57;;;;;;;19.69;100.00;99504.88;6246201;28;20439;-79
2021/07/20 00:50:59;;;;;;;8.87;5.60;;;;;;;19.66;100.00;99507.81;6244360;28;20277;-79
2021/07/20 00:54:00;;;;;;;15.03;6.07;;;;;;;19.63;100.00;99501.06;6244360;28;20045;-79
2021/07/20 00:57:01;;;;;;;10.63;6.17;;;;;;;19.61;100.00;99507.50;6245608;28;20116;-79
2021/07/20 01:00:06;;;;;;;9.33;5.73;;;;;;;19.63;100.00;99513.47;6245796;28;20192;-79
2021/07/20 01:03:07;;;;;;;9.23;5.95;;;;;;;19.66;100.00;99508.69;6250054;28;20415;-79
2021/07/20 01:06:08;;;;;;;11.77;5.80;;;;;;;19.67;100.00;99497.09;6249259;28;20041;-79
2021/07/20 01:09:10;;;;;;;;;;;;;;;19.63;100.00;99508.16;6249178;28;20124;-79
2021/07/20 01:12:11;;;;;;;8.65;5.63;;;;;;;19.63;100.00;99498.41;6249998;28;20295;-79
2021/07/20 01:15:14;;;;;;;12.30;6.25;;;;;;;19.54;100.00;99491.47;6249099;28;20045;-79
2021/07/20 01:18:16;;;;;;;14.48;6.03;;;;;;;19.58;100.00;99495.44;6248826;28;20041;-79
2021/07/20 01:21:17;;;;;;;10.13;6.20;;;;;;;19.50;100.00;99496.25;6248773;28;20045;-79
2021/07/20 01:24:18;;;;;;;8.07;5.40;;;;;;;19.57;100.00;99498.25;6232123;28;20037;-79
2021/07/20 01:27:19;;;;;;;9.15;5.80;;;;;;;19.60;100.00;99503.19;6249827;28;20404;-79
2021/07/20 01:30:20;;;;;;;11.07;6.23;;;;;;;19.62;100.00;99502.06;6248358;28;20053;-79
2021/07/20 01:33:22;;;;;;;11.60;5.90;;;;;;;19.64;100.00;99501.88;6249669;28;20049;-79
2021/07/20 01:36:24;;;;;;;;;;;;;;;19.66;100.00;99497.25;6249963;28;20499;-79
2021/07/20 01:39:27;;;;;;;9.57;5.47;;;;;;;19.67;100.00;99498.91;6248269;28;19947;-79
2021/07/20 01:42:29;;;;;;;9.98;5.40;;;;;;;19.65;100.00;99500.91;6248038;28;20128;-79
2021/07/20 01:45:32;;;;;;;10.70;5.57;;;;;;;19.67;100.00;99502.38;6248221;28;20046;-79
2021/07/20 01:48:36;;;;;;;10.93;6.38;;;;;;;19.60;100.00;99497.91;6249216;28;20042;-79
2021/07/20 01:51:37;;;;;;;12.85;6.18;;;;;;;19.55;100.00;99493.13;6249158;28;20520;-79
2021/07/20 01:54:42;;;;;;;11.45;6.20;;;;;;;19.55;100.00;99492.28;6231646;28;20476;-79
2021/07/20 01:57:43;;;;;;;11.95;6.32;;;;;;;19.56;100.00;99486.84;6248821;28;20053;-79
2021/07/20 02:00:45;;;;;;;11.10;6.38;;;;;;;19.42;100.00;99476.91;6231442;28;20503;-79
2021/07/20 02:10:12;;;;;;;10.18;6.22;;;;;;;19.38;100.00;99472.94;6248812;28;20052;-79
2021/07/20 02:13:15;;;;;;;14.18;7.10;;;;;;;19.33;100.00;99482.19;6247010;28;20056;-79
2021/07/20 02:16:18;;;;;;;15.27;6.65;;;;;;;19.38;100.00;99481.69;6247347;28;20033;-79
2021/07/20 02:19:24;;;;;;;14.30;6.72;;;;;;;19.33;100.00;99482.19;6248525;28;20041;-79
2021/07/20 02:22:26;;;;;;;12.93;6.20;;;;;;;19.32;100.00;99477.88;6248308;28;20037;-79
2021/07/20 02:25:27;;;;;;;;;;;;;;;19.36;100.00;99485.50;6247665;28;20038;-79
2021/07/20 02:28:29;;;;;;;11.55;5.85;;;;;;;19.37;100.00;99481.84;6248366;28;19948;-79
2021/07/20 02:31:31;;;;;;;11.88;6.72;;;;;;;19.41;100.00;99477.88;6248354;28;20399;-79
2021/07/20 02:34:36;;;;;;;8.95;5.80;;;;;;;19.38;100.00;99478.25;6214333;28;20038;-79
2021/07/20 02:37:40;;;;;;;10.77;6.22;;;;;;;19.34;100.00;99483.03;6248070;28;20045;-79
2021/07/20 02:40:43;;;;;;;16.05;6.57;;;;;;;19.36;100.00;99477.56;6230577;28;20041;-79
2021/07/20 02:43:47;;;;;;;13.55;6.63;;;;;;;19.34;99.87;99477.72;6246710;28;20450;-79
2021/07/20 02:46:48;;;;;;;13.00;6.28;;;;;;;19.29;99.23;99483.53;6247904;28;20500;-79
2021/07/20 02:49:51;;;;;;;11.30;6.83;;;;;;;19.31;99.36;99491.28;6247671;28;20068;-79
2021/07/20 02:52:53;;;;;;;15.90;6.47;;;;;;;19.25;98.73;99495.41;6246841;28;20042;-79
2021/07/20 02:55:54;;;;;;;13.40;6.38;;;;;;;19.22;99.02;99498.38;6246538;28;20052;-79
2021/07/20 02:59:03;;;;;;;12.05;6.85;;;;;;;19.25;99.32;99499.84;6246149;28;20062;-79
2021/07/20 03:02:05;;;;;;;11.75;6.22;;;;;;;19.23;99.21;99500.03;6247416;28;20041;-79
2021/07/20 03:05:06;;;;;;;;;;;;;;;19.21;99.54;99503.81;6248112;28;20041;-79
2021/07/20 03:08:09;;;;;;;13.13;6.78;;;;;;;19.24;98.92;99506.16;6247280;28;19929;-79
2021/07/20 03:11:13;;;;;;;15.13;6.93;;;;;;;19.19;98.99;99508.44;6247388;28;20115;-79
2021/07/20 03:14:18;;;;;;;14.10;6.47;;;;;;;19.13;98.90;99508.13;6246053;28;20124;-79
2021/07/20 03:17:23;;;;;;;11.35;7.00;;;;;;;19.15;98.96;99505.31;6246032;28;20120;-79
2021/07/20 03:20:25;;;;;;;12.50;6.40;;;;;;;19.19;97.97;99508.44;6245976;28;20485;-79
2021/07/20 03:23:27;;;;;;;11.30;6.82;;;;;;;19.24;97.83;99501.69;6228862;28;20049;-79
2021/07/20 03:26:29;;;;;;;14.73;6.68;;;;;;;19.29;97.56;99509.97;6245662;28;20053;-77
2021/07/20 03:29:30;;;;;;;11.80;6.93;;;;;;;19.33;98.00;99513.94;6245878;28;20440;-77
2021/07/20 03:32:32;;;;;;;11.45;7.15;;;;;;;19.22;97.44;99508.94;6246795;28;20069;-79
2021/07/20 03:35:33;;;;;;;12.68;7.75;;;;;;;19.31;96.91;99515.91;6229405;28;20092;-77
2021/07/20 03:38:35;;;;;;;12.52;7.55;;;;;;;19.36;97.16;99510.13;6246786;28;20049;-77
2021/07/20 03:41:37;;;;;;;9.60;6.75;;;;;;;19.39;95.64;99514.25;6229171;28;20049;-77
2021/07/20 03:44:39;;;;;;;;;;;;;;;19.40;95.68;99511.47;6247397;28;20519;-79
2021/07/20 03:47:42;;;;;;;14.47;7.80;;;;;;;19.41;95.11;99507.81;6246556;28;19964;-79
2021/07/20 03:50:48;;;;;;;13.32;7.13;;;;;;;19.40;94.87;99516.75;6245273;28;20049;-79
2021/07/20 03:53:50;;;;;;;14.95;7.38;;;;;;;19.26;95.21;99502.34;6245212;28;20548;-79
2021/07/20 03:56:52;;;;;;;14.52;7.60;;;;;;;19.30;95.41;99508.97;6229072;28;20041;-79
2021/07/20 03:59:57;;;;;;;12.65;7.63;;;;;;;19.38;95.03;99500.22;6246217;28;20073;-79
2021/07/20 04:03:42;;;;;;;16.02;7.82;;;;;;;19.38;94.63;99500.22;6246310;28;20403;-79
2021/07/20 04:06:26;;;;;;;13.02;7.47;;;;;;;19.41;93.99;99499.06;6245615;28;20058;-79
2021/07/20 04:09:27;;;;;;;13.60;8.07;;;;;;;19.43;94.36;99502.38;6246173;28;20124;-79
2021/07/20 04:12:28;;;;;;;13.65;7.97;;;;;;;19.39;94.42;99508.97;6246109;28;20052;-79
2021/07/20 04:15:34;;;;;;;16.50;8.23;;;;;;;19.47;94.79;99501.03;6246282;28;20045;-79
2021/07/20 04:18:36;;;;;;;14.43;8.45;;;;;;;19.51;93.22;99500.53;6244936;28;20060;-79
2021/07/20 04:21:38;;;;;;;15.80;8.27;;;;;;;19.53;92.47;99509.16;6228680;28;20057;-79
2021/07/20 04:24:40;;;;;;;15.88;9.25;;;;;;;19.52;92.40;99506.69;6228513;28;20041;-79
2021/07/20 04:27:42;;;;;;;14.57;8.90;;;;;;;19.56;92.85;99512.44;6245780;28;20091;-79
2021/07/20 04:30:45;;;;;;;13.45;8.40;;;;;;;19.59;92.64;99514.78;6245967;28;20045;-79
2021/07/20 04:33:48;;;;;;;20.27;8.90;;;;;;;19.56;93.22;99517.75;6245879;28;20079;-79
2021/07/20 04:36:51;;;;;;;14.43;8.43;;;;;;;19.57;93.21;99524.72;6249749;28;20293;-79
2021/07/20 04:39:53;;;;;;;19.85;8.57;;;;;;;19.63;92.64;99527.50;6250744;28;20065;-79
2021/07/20 04:42:54;;;;;;;16.08;8.68;;;;;;;19.64;92.64;99533.63;6249599;28;20042;-79
2021/07/20 04:45:56;;;;;;;13.70;8.27;;;;;;;19.61;91.90;99531.31;6233329;28;20041;-79
2021/07/20 04:48:58;;;;;;;15.10;8.77;;;;;;;19.55;93.61;99532.81;6249552;28;20100;-79
2021/07/20 04:51:59;;;;;;;13.52;8.88;;;;;;;19.59;91.90;99531.47;6249426;28;20037;-79
2021/07/20 04:55:01;;;;;;;13.40;8.32;;;;;;;19.63;91.79;99534.63;6250379;28;20091;-79
2021/07/20 04:58:03;;;;;;;15.63;8.35;;;;;;;19.65;92.02;99533.47;6249134;28;20070;-79
2021/07/20 05:01:07;;;;;;;15.15;8.13;;;;;;;19.67;92.15;99541.25;6249204;28;20170;-79
2021/07/20 05:04:09;;;;;;;17.08;8.23;;;;;;;19.65;91.66;99537.94;6250090;28;20049;-79
2021/07/20 05:07:15;;;;;;;;;;;;;;;19.72;91.42;99542.41;6249385;28;20116;-79
2021/07/20 05:10:17;;;;;;;12.52;7.25;;;;;;;19.68;91.21;99542.91;6249127;28;19950;-79
2021/07/20 05:13:19;;;;;;;14.77;8.93;;;;;;;19.77;90.93;99543.75;6232476;28;20045;-79
2021/07/20 05:16:20;;;;;;;19.85;7.78;;;;;;;19.79;90.61;99544.41;6250014;28;20046;-79
2021/07/20 05:19:21;;;;;;;16.90;8.87;;;;;;;19.79;90.56;99542.59;6248649;28;20467;-79
2021/07/20 05:22:23;;;;;;;18.90;8.50;;;;;;;19.84;90.99;99552.69;6249938;28;20042;-79
2021/07/20 05:25:24;;;;;;;22.08;9.02;;;;;;;19.83;90.99;99548.38;6232289;28;20038;-79
2021/07/20 05:28:26;;;;;;;14.43;8.70;;;;;;;19.90;92.10;99550.22;6248589;28;20121;-79
2021/07/20 05:31:29;;;;;;;15.23;8.75;;;;;;;19.88;92.06;99556.66;6249643;28;20499;-79
2021/07/20 05:34:30;;;;;;;15.43;8.82;;;;;;;19.95;92.17;99557.63;6249862;28;20481;-79
2021/07/20 05:37:34;;;;;;;17.63;9.20;;;;;;;19.99;90.54;99558.97;6215721;28;20403;-79
2021/07/20 05:40:35;;;;;;;15.20;8.77;;;;;;;20.04;89.38;99559.31;6248312;28;20281;-79
2021/07/20 05:43:37;;;;;;;22.77;8.90;;;;;;;19.99;90.18;99561.63;6248384;28;20045;-79
2021/07/20 05:46:42;;;;;;;16.45;9.05;;;;;;;20.10;90.44;99568.41;6230961;28;20124;-79
2021/07/20 05:49:43;;;;;;;14.10;9.05;;;;;;;20.12;89.23;99571.72;6249335;28;20091;-79
2021/07/20 05:52:50;;;;;;;12.07;8.20;;;;;;;20.20;89.24;99574.38;6249243;28;20080;-79
2021/07/20 05:55:53;;;;;;;16.85;8.25;;;;;;;20.17;87.87;99572.03;6249196;28;20114;-79
2021/07/20 05:58:54;;;;;;;17.95;9.30;;;;;;;20.28;88.14;99587.59;6247688;28;20049;-79
2021/07/20 06:01:56;;;;;;;16.48;8.35;;;;;;;20.21;87.36;99585.78;6215397;28;20129;-79
2021/07/20 06:04:57;;;;;;;11.70;7.47;;;;;;;20.34;87.51;99586.06;6247825;28;20492;-79
2021/07/20 06:07:59;;;;;;;17.10;9.50;;;;;;;20.40;87.02;99582.75;6231308;28;20045;-79
2021/07/20 06:11:03;;;;;;;15.60;8.10;;;;;;;20.43;88.70;99589.56;6215842;28;20053;-79
2021/07/20 06:14:04;;;;;;;14.30;7.85;;;;;;;20.56;86.61;99591.69;6247502;28;20045;-79
2021/07/20 06:17:06;;;;;;;15.77;8.82;;;;;;;20.62;86.79;99588.38;6231233;28;20069;-79
2021/07/20 06:20:08;;;;;;;14.30;8.70;;;;;;;20.65;85.90;99590.69;6247435;28;20125;-79
2021/07/20 06:23:11;;;;;;;14.93;8.68;;;;;;;20.68;84.67;99587.72;6248368;28;20519;-79
2021/07/20 06:26:17;;;;;;;15.65;8.52;;;;;;;20.65;85.07;99588.03;6248626;28;20098;-79
2021/07/20 06:29:21;;;;;;;15.48;8.88;;;;;;;20.70;87.05;99578.56;6247428;28;20084;-79
2021/07/20 06:32:23;;;;;;;15.43;8.52;;;;;;;20.61;84.55;99584.91;6248457;28;20056;-78
2021/07/20 06:35:25;;;;;;;12.13;8.27;;;;;;;20.61;84.02;99578.75;6247226;28;20045;-79
2021/07/20 06:38:28;;;;;;;20.85;9.35;;;;;;;20.70;85.54;99577.75;6230602;28;20063;-79
2021/07/20 06:41:34;;;;;;;13.88;8.30;;;;;;;20.74;84.04;99571.13;6247123;28;20045;-79
2021/07/20 06:44:36;;;;;;;16.02;8.55;;;;;;;20.78;85.17;99575.09;6248119;28;20072;-79
2021/07/20 06:47:41;;;;;;;14.98;8.25;;;;;;;20.83;84.11;99577.22;6230582;28;20045;-79
2021/07/20 06:50:43;;;;;;;16.17;7.97;;;;;;;20.96;83.78;99579.31;6246752;28;20037;-79
2021/07/20 06:53:43;;;;;;;;;;;;;;;20.97;85.35;99586.28;6247131;28;20045;-79
2021/07/20 06:56:55;;;;;;;14.18;7.90;;;;;;;21.07;83.79;99582.41;6247761;28;19967;-79
2021/07/20 06:59:58;;;;;;;15.27;8.50;;;;;;;21.02;82.80;99590.03;6247522;28;20050;-79
2021/07/20 07:03:01;;;;;;;15.63;8.43;;;;;;;20.98;82.47;99588.78;6247378;28;20038;-79
2021/07/20 07:06:03;;;;;;;16.65;8.38;;;;;;;20.93;84.28;99586.59;6247442;28;20135;-79
2021/07/20 07:09:04;;;;;;;;;;;;;;;20.95;84.51;99594.41;6246657;28;20042;-79
2021/07/20 07:12:06;;;;;;;12.47;7.57;;;;;;;21.10;82.84;99587.34;6247341;28;19921;-79
2021/07/20 07:15:08;;;;;;;14.68;8.50;;;;;;;21.08;81.69;99589.34;6229822;28;20052;-79
2021/07/20 07:18:10;;;;;;;14.63;8.18;;;;;;;21.26;83.71;99583.81;6247227;28;20115;-79
2021/07/20 07:21:12;;;;;;;14.30;8.35;;;;;;;21.37;83.38;99584.41;6229668;28;20120;-79
2021/07/20 07:24:18;;;;;;;15.00;7.80;;;;;;;21.40;82.50;99582.25;6229511;28;20160;-79
2021/07/20 07:27:21;;;;;;;15.40;7.72;;;;;;;21.50;82.32;99580.22;6245863;28;20512;-79
2021/07/20 07:30:23;;;;;;;14.82;8.55;;;;;;;21.56;80.99;99577.84;6246874;28;20103;-79
2021/07/20 07:33:24;;;;;;;15.23;7.82;;;;;;;21.55;81.68;99574.38;6245634;28;20045;-79
2021/07/20 07:36:27;;;;;;;14.10;8.35;;;;;;;21.61;82.07;99576.31;6229220;28;20045;-79
2021/07/20 07:39:30;;;;;;;13.15;7.80;;;;;;;21.70;81.76;99572.63;6246692;28;20121;-79
2021/07/20 07:42:34;;;;;;;20.25;8.35;;;;;;;21.85;82.55;99577.97;6246520;28;20065;-79
2021/07/20 07:45:36;;;;;;;16.38;8.02;;;;;;;21.88;80.94;99580.25;6246603;28;20069;-79
2021/07/20 07:48:38;;;;;;;17.77;7.97;;;;;;;21.92;81.35;99581.56;6212845;28;20447;-79
2021/07/20 07:51:42;;;;;;;14.73;8.35;;;;;;;21.98;85.03;99581.88;6245164;28;20041;-79
2021/07/20 07:54:46;;;;;;;15.85;8.00;;;;;;;22.01;81.94;99574.38;6246321;28;20055;-79
2021/07/20 07:57:48;;;;;;;22.83;8.35;;;;;;;22.03;81.27;99583.00;6246040;28;20386;-79
2021/07/20 08:00:49;;;;;;;;;;;;;;;22.07;80.66;99588.75;6246687;28;20085;-79
2021/07/20 08:03:51;;;;;;;14.23;8.02;;;;;;;22.06;80.01;99585.28;6244933;28;19970;-79
2021/07/20 08:06:52;;;;;;;;;;;;;;;22.09;80.35;99587.59;6245650;28;20048;-79
2021/07/20 08:09:55;;;;;;;16.67;7.85;;;;;;;22.11;81.65;99590.88;6245861;28;19928;-79
2021/07/20 08:12:58;;;;;;;15.73;8.32;;;;;;;22.17;81.81;99599.94;6244848;28;20049;-79
2021/07/20 08:16:00;;;;;;;21.23;9.02;;;;;;;22.27;80.48;99603.22;6245043;28;20550;-79
2021/07/20 08:19:03;;;;;;;15.82;8.02;;;;;;;22.30;80.19;99597.53;6245009;28;20414;-79
2021/07/20 08:22:08;;;;;;;14.85;8.43;;;;;;;22.27;81.42;99605.03;6246044;28;20044;-79
2021/07/20 08:25:18;;;;;;;14.65;8.18;;;;;;;22.14;79.40;99602.97;6212748;28;20540;-79
2021/07/20 08:28:44;;;;;;;16.08;8.32;;;;;;;22.20;80.13;99601.44;6244741;28;20569;-79
2021/07/20 08:31:51;;;;;;;16.70;8.77;;;;;;;22.28;79.32;99601.41;6246010;28;20069;-79
2021/07/20 08:35:00;;;;;;;20.55;8.05;;;;;;;22.41;80.41;99606.09;6244780;28;20037;-79
2021/07/20 08:38:11;;;;;;;14.57;8.25;;;;;;;22.44;78.95;99609.19;6245852;28;20408;-79
2021/07/20 08:41:26;;;;;;;12.45;7.70;;;;;;;22.53;78.79;99605.44;6244647;28;20451;-80
2021/07/20 08:44:51;;;;;;;14.02;7.78;;;;;;;22.59;78.89;99611.03;6245570;28;20042;-79
2021/07/20 08:48:10;;;;;;;15.20;7.88;;;;;;;22.80;78.95;99607.66;6244387;28;20125;-79
2021/07/20 08:51:19;;;;;;;13.85;7.88;;;;;;;22.93;76.57;99613.97;6245696;28;20056;-79
2021/07/20 08:54:27;;;;;;;16.80;8.27;;;;;;;23.05;75.31;99603.72;6245749;28;20103;-79
2021/07/20 08:57:43;;;;;;;14.30;7.68;;;;;;;23.20;74.92;99605.53;6245697;28;20052;-79
2021/07/20 09:00:46;;;;;;;15.23;7.82;;;;;;;23.12;74.25;99609.13;6244318;28;20041;-79
2021/07/20 09:03:54;;;;;;;11.80;7.90;;;;;;;23.12;76.06;99606.47;6245681;28;20129;-79
2021/07/20 09:07:02;;;;;;;17.35;7.70;;;;;;;23.31;76.34;99607.75;6245501;28;20104;-79
2021/07/20 09:10:08;;;;;;;13.77;7.45;;;;;;;23.29;75.82;99609.75;6245450;28;20041;-79
2021/07/20 09:13:15;;;;;;;15.43;7.53;;;;;;;23.46;74.65;99603.19;6244274;28;20069;-80
2021/07/20 09:16:26;;;;;;;13.15;7.60;;;;;;;23.85;75.13;99595.81;6245480;28;20034;-80
2021/07/20 09:19:50;;;;;;;17.53;8.07;;;;;;;24.04;71.80;99595.16;6244132;28;20467;-80
2021/07/20 09:22:56;;;;;;;12.98;7.65;;;;;;;24.11;72.26;99604.03;6247060;28;20047;-79
2021/07/20 09:25:59;;;;;;;12.90;7.70;;;;;;;24.14;72.38;99598.31;6249919;28;20046;-79
2021/07/20 09:29:13;;;;;;;12.00;7.13;;;;;;;24.14;71.57;99603.66;6249828;28;20120;-79
2021/07/20 09:32:32;;;;;;;12.30;7.75;;;;;;;24.40;71.42;99606.69;6249491;28;20045;-79
2021/07/20 09:35:59;;;;;;;16.05;8.40;;;;;;;24.34;70.49;99605.66;6249601;28;20041;-79
2021/07/20 09:39:22;;;;;;;11.50;7.78;;;;;;;24.54;73.73;99605.81;6245798;28;20064;-79
2021/07/20 09:42:38;;;;;;;18.98;7.97;;;;;;;24.40;69.96;99607.53;6248014;28;20060;-79
2021/07/20 09:45:43;;;;;;;14.05;7.22;;;;;;;24.43;69.37;99609.81;6248220;28;20089;-79
2021/07/20 09:48:56;;;;;;;11.52;7.30;;;;;;;24.63;69.92;99604.66;6249066;28;20120;-79
2021/07/20 09:52:35;;;;;;;16.30;7.90;;;;;;;24.47;69.26;99616.41;6247960;28;20050;-79
2021/07/20 09:56:07;;;;;;;13.10;7.38;;;;;;;24.82;71.54;99610.28;6247846;28;20049;-79
2021/07/20 09:59:41;;;;;;;13.70;7.38;;;;;;;24.87;68.92;99606.03;6248629;28;20566;-79
2021/07/20 10:03:08;;;;;;;14.05;7.57;;;;;;;24.81;68.67;99625.47;6248725;28;20120;-79
2021/07/20 10:06:27;;;;;;;12.40;6.95;;;;;;;24.66;69.03;99622.91;6248865;28;20049;-79
2021/07/20 10:09:47;;;;;;;14.85;7.47;;;;;;;24.51;69.39;99619.53;6247528;28;20041;-79
2021/07/20 10:13:02;;;;;;;10.93;7.05;;;;;;;24.30;70.60;99613.22;6248657;28;20554;-79
2021/07/20 10:16:24;;;;;;;11.35;7.55;;;;;;;24.47;69.33;99618.25;6230852;28;20136;-79
2021/07/20 10:19:44;;;;;;;12.25;7.22;;;;;;;24.24;70.46;99613.97;6247006;28;20053;-79
2021/07/20 10:23:22;;;;;;;17.05;8.00;;;;;;;24.26;72.15;99613.81;6247213;28;20057;-79
2021/07/20 10:26:35;;;;;;;15.23;7.68;;;;;;;24.34;71.33;99616.31;6247049;28;20116;-79
2021/07/20 10:29:53;;;;;;;16.83;8.18;;;;;;;24.52;71.16;99621.19;6247106;28;20103;-79
2021/07/20 10:33:22;;;;;;;13.25;7.65;;;;;;;24.47;70.88;99619.06;6246902;28;20412;-79
2021/07/20 10:36:25;;;;;;;16.60;8.00;;;;;;;24.42;72.23;99615.31;6246947;28;20087;-79
2021/07/20 10:39:34;;;;;;;14.35;7.80;;;;;;;24.62;70.66;99616.31;6246996;28;20041;-79
2021/07/20 10:42:53;;;;;;;16.48;7.63;;;;;;;24.99;68.81;99614.28;6247959;28;20504;-79
2021/07/20 10:45:56;;;;;;;12.82;8.23;;;;;;;25.00;67.19;99615.09;6246922;28;20488;-79
2021/07/20 10:49:08;;;;;;;11.23;7.70;;;;;;;24.97;66.35;99616.31;6246854;28;20201;-79
2021/07/20 10:52:21;;;;;;;;;;;;;;;24.69;67.85;99613.72;6248629;28;20049;-79
2021/07/20 10:55:30;;;;;;;12.50;6.55;;;;;;;24.56;69.40;99617.09;6247617;28;19921;-79
2021/07/20 10:58:43;;;;;;;16.55;7.95;;;;;;;24.42;71.28;99618.84;6247364;28;20492;-79
2021/07/20 11:02:28;;;;;;;11.80;7.60;;;;;;;24.20;70.31;99628.72;6247500;28;20601;-79
2021/07/20 11:05:30;;;;;;;14.15;8.18;;;;;;;23.92;70.80;99626.00;6246484;28;20064;-79
2021/07/20 11:08:32;;;;;;;;;;;;;;;24.05;71.01;99626.13;6230321;28;20448;-78
2021/07/20 11:11:44;;;;;;;13.63;8.07;;;;;;;24.13;71.08;99617.16;6247279;28;19921;-79
2021/07/20 11:14:50;;;;;;;13.65;7.78;;;;;;;23.97;70.35;99623.59;6247309;28;20049;-79
2021/07/20 11:17:51;;;;;;;16.05;8.38;;;;;;;23.79;69.82;99618.72;6247243;28;20094;-79
2021/07/20 11:20:59;;;;;;;14.57;8.20;;;;;;;23.71;70.51;99627.63;6247381;28;20408;-79
2021/07/20 11:24:00;;;;;;;15.10;8.18;;;;;;;23.75;70.35;99628.06;6245984;28;20045;-79
2021/07/20 11:27:02;;;;;;;15.20;7.70;;;;;;;24.31;68.63;99628.16;6245836;28;20123;-79
2021/07/20 11:30:03;;;;;;;13.63;7.75;;;;;;;24.73;66.30;99636.31;6229398;28;20094;-79
2021/07/20 11:33:10;;;;;;;17.75;7.80;;;;;;;24.93;65.37;99629.25;6246692;28;20046;-79
2021/07/20 11:36:14;;;;;;;14.60;7.65;;;;;;;24.80;63.88;99623.00;6246843;28;20480;-79
2021/07/20 11:39:19;;;;;;;14.18;7.78;;;;;;;24.99;63.15;99616.13;6246548;28;20543;-79
2021/07/20 11:42:28;;;;;;;13.38;8.05;;;;;;;24.77;65.13;99628.72;6245599;28;20108;-79
2021/07/20 11:45:33;;;;;;;11.60;7.47;;;;;;;24.98;62.89;99635.81;6245986;28;20447;-79
2021/07/20 11:48:53;;;;;;;14.35;7.95;;;;;;;25.42;61.29;99634.59;6245395;28;20042;-79
2021/07/20 11:52:02;;;;;;;14.93;7.80;;;;;;;25.69;60.55;99635.50;6246512;28;20045;-79
2021/07/20 11:55:26;;;;;;;13.27;7.88;;;;;;;25.94;60.16;99633.09;6246418;28;20041;-79
2021/07/20 11:58:46;;;;;;;13.93;7.30;;;;;;;25.98;59.80;99636.19;6244787;28;20060;-79
2021/07/20 12:02:11;;;;;;;13.13;6.93;;;;;;;26.06;59.08;99636.00;6245271;28;20490;-79
2021/07/20 12:05:38;;;;;;;15.40;7.18;;;;;;;26.21;57.77;99638.44;6246448;28;20060;-79
2021/07/20 12:09:03;;;;;;;12.52;7.68;;;;;;;26.63;59.31;99642.56;6246555;28;20037;-78
2021/07/20 12:12:05;;;;;;;15.55;7.85;;;;;;;26.77;56.68;99637.19;6244645;28;20045;-79
2021/07/20 12:15:07;;;;;;;15.88;7.38;;;;;;;27.03;55.90;99639.78;6228458;28;20046;-79
2021/07/20 12:18:08;;;;;;;16.42;8.23;;;;;;;27.01;54.49;99636.50;6244729;28;20053;-79
2021/07/20 12:21:09;;;;;;;15.25;8.32;;;;;;;26.55;54.24;99640.09;6246341;28;20041;-79
2021/07/20 12:24:11;;;;;;;11.73;7.53;;;;;;;26.99;53.94;99641.25;6228800;28;20060;-79
2021/07/20 12:27:11;;;;;;;12.02;7.47;;;;;;;26.89;55.38;99632.81;6245778;28;20041;-79
2021/07/20 12:30:15;;;;;;;13.43;7.57;;;;;;;28.25;50.55;99652.34;6228206;28;20503;-79
2021/07/20 12:33:17;;;;;;;14.52;7.60;;;;;;;29.62;46.63;99649.44;6244408;28;20089;-79
2021/07/20 12:36:17;;;;;;;;;;;;;;;31.35;42.14;99648.38;6246152;28;20400;-79
2021/07/20 12:39:23;;;;;;;14.27;7.30;;;;;;;32.72;39.78;99646.41;6211599;28;19944;-80
2021/07/20 12:42:32;;;;;;;16.27;7.35;;;;;;;33.30;37.32;99648.75;6244338;28;20041;-79
2021/07/20 12:45:33;;;;;;;13.57;6.97;;;;;;;33.65;37.38;99650.25;6245535;28;20046;-80
2021/07/20 12:48:34;;;;;;;;;;;;;;;33.83;35.32;99652.56;6228549;28;20404;-77
2021/07/20 12:51:48;;;;;;;13.20;7.13;;;;;;;34.29;34.68;99655.66;6245580;28;19967;-77
2021/07/20 12:54:49;;;;;;;10.23;6.53;;;;;;;34.05;34.52;99647.06;6244596;28;20053;-78
2021/07/20 12:57:52;;;;;;;11.13;6.78;;;;;;;33.51;36.27;99655.19;6248994;28;20042;-77
2021/07/20 13:00:53;;;;;;;15.00;7.07;;;;;;;33.57;34.80;99648.78;6232915;28;20049;-77
2021/07/20 13:03:58;;;;;;;10.07;6.75;;;;;;;33.36;38.16;99655.03;6248913;28;20065;-78
2021/07/20 13:06:59;;;;;;;12.45;6.72;;;;;;;33.04;36.49;99650.31;6250330;28;20076;-77
2021/07/20 13:10:04;;;;;;;12.30;6.55;;;;;;;32.52;38.21;99652.28;6232706;28;20047;-77
2021/07/20 13:13:06;;;;;;;10.27;6.47;;;;;;;33.33;37.63;99649.03;6250042;28;20424;-77
2021/07/20 13:16:07;;;;;;;10.85;7.47;;;;;;;32.58;37.77;99645.13;6248703;28;20423;-77
2021/07/20 13:19:09;;;;;;;10.45;6.88;;;;;;;32.08;40.24;99644.06;6232377;28;20064;-77
2021/07/20 13:22:11;;;;;;;12.68;6.75;;;;;;;30.91;42.05;99634.56;6248382;28;20049;-78
2021/07/20 13:25:14;;;;;;;10.55;7.00;;;;;;;29.76;46.27;99658.19;6248739;28;20057;-77
2021/07/20 13:28:16;;;;;;;9.40;6.93;;;;;;;28.92;45.36;99648.00;6248488;28;20401;-80
2021/07/20 13:31:17;;;;;;;11.27;7.55;;;;;;;29.21;46.40;99642.97;6248408;28;20115;-79
2021/07/20 13:34:18;;;;;;;13.77;7.55;;;;;;;28.47;48.34;99644.72;6215693;28;20480;-79
2021/07/20 13:37:21;;;;;;;13.38;7.70;;;;;;;28.32;50.44;99645.06;6231935;28;20038;-79
2021/07/20 13:40:23;;;;;;;16.83;7.80;;;;;;;27.87;48.96;99643.34;6248255;28;20081;-79
2021/07/20 13:43:26;;;;;;;12.02;6.93;;;;;;;27.82;49.48;99640.47;6248058;28;20052;-79
2021/07/20 13:46:30;;;;;;;13.60;7.00;;;;;;;27.94;49.49;99637.94;6249481;28;20040;-79
2021/07/20 13:49:33;;;;;;;15.57;7.43;;;;;;;27.79;49.36;99640.09;6249413;28;20045;-79
2021/07/20 13:52:36;;;;;;;13.95;7.78;;;;;;;27.89;52.33;99640.47;6249048;28;20048;-79
2021/07/20 13:55:45;;;;;;;21.88;7.93;;;;;;;27.11;52.09;99641.41;6249180;28;20038;-78
2021/07/20 13:58:48;;;;;;;13.10;7.53;;;;;;;27.10;51.68;99642.47;6247669;28;20046;-79
2021/07/20 14:01:48;;;;;;;14.68;7.43;;;;;;;27.17;51.57;99637.91;6247815;28;20072;-79
2021/07/20 14:04:49;;;;;;;11.80;7.35;;;;;;;27.22;52.50;99646.13;6248682;28;20042;-78
2021/07/20 14:07:51;;;;;;;11.20;7.15;;;;;;;27.33;51.67;99640.13;6214129;28;20063;-79
2021/07/20 14:10:57;;;;;;;13.82;8.13;;;;;;;27.64;50.70;99638.53;6231197;28;20037;-79
2021/07/20 14:14:01;;;;;;;11.18;7.20;;;;;;;27.54;49.84;99633.63;6248640;28;20092;-79
2021/07/20 14:17:03;;;;;;;18.98;7.82;;;;;;;27.24;50.62;99638.72;6247698;28;20106;-79
2021/07/20 14:20:11;;;;;;;11.45;6.80;;;;;;;27.04;50.88;99640.63;6247787;28;20069;-79
2021/07/20 14:23:12;;;;;;;12.05;7.15;;;;;;;26.88;50.31;99636.56;6247286;28;20057;-79
2021/07/20 14:26:13;;;;;;;11.63;6.35;;;;;;;26.79;50.88;99635.97;6214683;28;20045;-79
2021/07/20 14:29:20;;;;;;;16.25;7.55;;;;;;;26.61;51.51;99639.28;6247222;28;20041;-79
2021/07/20 14:32:23;;;;;;;13.77;7.30;;;;;;;26.79;52.19;99635.97;6247217;28;20045;-79